sensor_id;sensor_type;location;lat;lon;timestamp;temperature;humidity
1355;DHT22;671;48.972;9.276;2023-04-06T00:01:51;1.80;1.00
1355;DHT22;671;48.972;9.276;2023-04-06T00:04:17;1.80;1.00
1355;DHT22;671;48.972;9.276;2023-04-06T00:06:44;1.80;1.00
1355;DHT22;671;48.972;9.276;2023-04-06T00:09:10;1.70;1.00
1355;DHT22;671;48.972;9.276;2023-04-06T00:11:37;1.70;1.00
1355;DHT22;671;48.972;9.276;2023-04-06T00:14:03;1.70;1.00
1355;DHT22;671;48.972;9.276;2023-04-06T00:16:30;1.60;1.00
1355;DHT22;671;48.972;9.276;2023-04-06T00:18:56;1.60;1.00
1355;DHT22;671;48.972;9.276;2023-04-06T00:21:23;1.60;1.00
1355;DHT22;671;48.972;9.276;2023-04-06T00:23:49;1.60;1.00
1355;DHT22;671;48.972;9.276;2023-04-06T00:26:16;1.60;1.00
1355;DHT22;671;48.972;9.276;2023-04-06T00:28:42;1.60;1.00
1355;DHT22;671;48.972;9.276;2023-04-06T00:31:09;1.50;1.00
1355;DHT22;671;48.972;9.276;2023-04-06T00:33:35;1.50;1.00
1355;DHT22;671;48.972;9.276;2023-04-06T00:36:02;1.60;1.00
1355;DHT22;671;48.972;9.276;2023-04-06T00:38:28;1.50;1.00
1355;DHT22;671;48.972;9.276;2023-04-06T00:40:55;1.50;1.00
1355;DHT22;671;48.972;9.276;2023-04-06T00:43:21;1.40;1.00
1355;DHT22;671;48.972;9.276;2023-04-06T00:45:48;1.40;1.00
1355;DHT22;671;48.972;9.276;2023-04-06T00:48:14;1.40;1.00
1355;DHT22;671;48.972;9.276;2023-04-06T00:50:41;1.40;1.00
1355;DHT22;671;48.972;9.276;2023-04-06T00:53:08;1.30;1.00
1355;DHT22;671;48.972;9.276;2023-04-06T00:55:34;1.30;1.00
1355;DHT22;671;48.972;9.276;2023-04-06T00:58:02;1.30;1.00
1355;DHT22;671;48.972;9.276;2023-04-06T01:00:30;1.30;1.00
1355;DHT22;671;48.972;9.276;2023-04-06T01:02:56;1.30;1.00
1355;DHT22;671;48.972;9.276;2023-04-06T01:05:23;1.20;1.00
1355;DHT22;671;48.972;9.276;2023-04-06T01:07:49;1.20;92.30
1355;DHT22;671;48.972;9.276;2023-04-06T01:10:23;1.20;92.80
1355;DHT22;671;48.972;9.276;2023-04-06T01:12:50;1.20;1.00
1355;DHT22;671;48.972;9.276;2023-04-06T01:15:17;1.20;1.00
1355;DHT22;671;48.972;9.276;2023-04-06T01:17:43;1.10;34.20
1355;DHT22;671;48.972;9.276;2023-04-06T01:20:10;1.10;92.70
1355;DHT22;671;48.972;9.276;2023-04-06T01:22:37;1.10;39.10
1355;DHT22;671;48.972;9.276;2023-04-06T01:25:04;1.10;93.80
1355;DHT22;671;48.972;9.276;2023-04-06T01:27:30;1.10;92.70
1355;DHT22;671;48.972;9.276;2023-04-06T01:29:57;1.10;92.80
1355;DHT22;671;48.972;9.276;2023-04-06T01:32:23;1.10;92.60
1355;DHT22;671;48.972;9.276;2023-04-06T01:34:50;1.00;92.60
1355;DHT22;671;48.972;9.276;2023-04-06T01:37:16;1.00;99.90
1355;DHT22;671;48.972;9.276;2023-04-06T01:39:43;1.00;99.90
1355;DHT22;671;48.972;9.276;2023-04-06T01:42:10;1.00;99.90
1355;DHT22;671;48.972;9.276;2023-04-06T01:44:37;1.00;99.90
1355;DHT22;671;48.972;9.276;2023-04-06T01:47:03;1.00;99.90
1355;DHT22;671;48.972;9.276;2023-04-06T01:49:30;1.00;99.90
1355;DHT22;671;48.972;9.276;2023-04-06T01:51:56;0.90;92.70
1355;DHT22;671;48.972;9.276;2023-04-06T01:54:23;0.90;99.90
1355;DHT22;671;48.972;9.276;2023-04-06T01:56:49;0.90;99.90
1355;DHT22;671;48.972;9.276;2023-04-06T01:59:17;0.90;99.90
1355;DHT22;671;48.972;9.276;2023-04-06T02:01:44;0.80;92.60
1355;DHT22;671;48.972;9.276;2023-04-06T02:04:11;0.80;99.90
1355;DHT22;671;48.972;9.276;2023-04-06T02:06:38;0.80;99.90
1355;DHT22;671;48.972;9.276;2023-04-06T02:09:04;0.70;99.90
1355;DHT22;671;48.972;9.276;2023-04-06T02:11:31;0.70;99.90
1355;DHT22;671;48.972;9.276;2023-04-06T02:13:57;0.70;99.90
1355;DHT22;671;48.972;9.276;2023-04-06T02:16:24;0.70;99.90
1355;DHT22;671;48.972;9.276;2023-04-06T02:18:50;0.70;99.90
1355;DHT22;671;48.972;9.276;2023-04-06T02:21:17;0.70;99.90
1355;DHT22;671;48.972;9.276;2023-04-06T02:23:46;0.70;99.90
1355;DHT22;671;48.972;9.276;2023-04-06T02:26:13;0.70;99.90
1355;DHT22;671;48.972;9.276;2023-04-06T02:28:41;0.60;99.90
1355;DHT22;671;48.972;9.276;2023-04-06T02:31:08;0.60;99.90
1355;DHT22;671;48.972;9.276;2023-04-06T02:33:35;0.60;99.90
1355;DHT22;671;48.972;9.276;2023-04-06T02:36:01;0.70;99.90
1355;DHT22;671;48.972;9.276;2023-04-06T02:38:28;0.70;99.90
1355;DHT22;671;48.972;9.276;2023-04-06T02:40:54;0.70;99.90
1355;DHT22;671;48.972;9.276;2023-04-06T02:43:21;0.70;99.90
1355;DHT22;671;48.972;9.276;2023-04-06T02:45:47;0.70;99.90
1355;DHT22;671;48.972;9.276;2023-04-06T02:48:14;0.70;99.90
1355;DHT22;671;48.972;9.276;2023-04-06T02:50:40;0.80;99.90
1355;DHT22;671;48.972;9.276;2023-04-06T02:53:07;0.80;99.90
1355;DHT22;671;48.972;9.276;2023-04-06T02:55:33;0.80;99.90
1355;DHT22;671;48.972;9.276;2023-04-06T02:58:00;0.80;99.90
1355;DHT22;671;48.972;9.276;2023-04-06T03:00:26;0.80;99.90
1355;DHT22;671;48.972;9.276;2023-04-06T03:02:53;0.80;99.90
1355;DHT22;671;48.972;9.276;2023-04-06T03:05:19;0.80;99.90
1355;DHT22;671;48.972;9.276;2023-04-06T03:07:46;0.80;99.90
1355;DHT22;671;48.972;9.276;2023-04-06T03:10:13;0.80;99.90
1355;DHT22;671;48.972;9.276;2023-04-06T03:12:39;0.70;99.90
1355;DHT22;671;48.972;9.276;2023-04-06T03:15:08;0.80;99.90
1355;DHT22;671;48.972;9.276;2023-04-06T03:17:35;0.70;99.90
1355;DHT22;671;48.972;9.276;2023-04-06T03:20:01;0.70;99.90
1355;DHT22;671;48.972;9.276;2023-04-06T03:22:29;0.70;99.90
1355;DHT22;671;48.972;9.276;2023-04-06T03:24:55;0.60;99.90
1355;DHT22;671;48.972;9.276;2023-04-06T03:27:22;0.60;99.90
1355;DHT22;671;48.972;9.276;2023-04-06T03:29:48;0.60;99.90
1355;DHT22;671;48.972;9.276;2023-04-06T03:32:15;0.60;99.90
1355;DHT22;671;48.972;9.276;2023-04-06T03:34:41;0.50;99.90
1355;DHT22;671;48.972;9.276;2023-04-06T03:37:08;0.50;99.90
1355;DHT22;671;48.972;9.276;2023-04-06T03:39:34;0.50;99.90
1355;DHT22;671;48.972;9.276;2023-04-06T03:42:01;0.50;99.90
1355;DHT22;671;48.972;9.276;2023-04-06T03:44:27;0.40;99.90
1355;DHT22;671;48.972;9.276;2023-04-06T03:46:54;0.40;99.90
1355;DHT22;671;48.972;9.276;2023-04-06T03:49:21;0.40;99.90
1355;DHT22;671;48.972;9.276;2023-04-06T03:51:47;0.40;99.90
1355;DHT22;671;48.972;9.276;2023-04-06T03:54:14;0.30;99.90
1355;DHT22;671;48.972;9.276;2023-04-06T03:56:40;0.30;99.90
1355;DHT22;671;48.972;9.276;2023-04-06T03:59:07;0.30;99.90
1355;DHT22;671;48.972;9.276;2023-04-06T04:01:34;0.30;99.90
1355;DHT22;671;48.972;9.276;2023-04-06T04:04:00;0.20;99.90
1355;DHT22;671;48.972;9.276;2023-04-06T04:06:27;0.20;99.90
1355;DHT22;671;48.972;9.276;2023-04-06T04:08:53;0.20;99.90
1355;DHT22;671;48.972;9.276;2023-04-06T04:11:20;0.20;99.90
1355;DHT22;671;48.972;9.276;2023-04-06T04:13:46;0.20;1.00
1355;DHT22;671;48.972;9.276;2023-04-06T04:16:13;0.10;1.00
1355;DHT22;671;48.972;9.276;2023-04-06T04:18:39;0.10;1.00
1355;DHT22;671;48.972;9.276;2023-04-06T04:21:06;0.10;1.00
1355;DHT22;671;48.972;9.276;2023-04-06T04:23:32;0.10;1.00
1355;DHT22;671;48.972;9.276;2023-04-06T04:25:59;0.10;99.90
1355;DHT22;671;48.972;9.276;2023-04-06T04:28:25;0.00;1.00
1355;DHT22;671;48.972;9.276;2023-04-06T04:30:52;0.00;1.00
1355;DHT22;671;48.972;9.276;2023-04-06T04:33:18;0.00;99.90
1355;DHT22;671;48.972;9.276;2023-04-06T04:35:45;0.00;1.00
1355;DHT22;671;48.972;9.276;2023-04-06T04:38:11;0.00;1.00
1355;DHT22;671;48.972;9.276;2023-04-06T04:40:38;0.00;1.00
1355;DHT22;671;48.972;9.276;2023-04-06T04:43:04;0.00;1.00
1355;DHT22;671;48.972;9.276;2023-04-06T04:45:31;0.00;1.00
1355;DHT22;671;48.972;9.276;2023-04-06T04:47:57;0.00;1.00
1355;DHT22;671;48.972;9.276;2023-04-06T04:50:24;0.00;1.00
1355;DHT22;671;48.972;9.276;2023-04-06T04:52:50;0.00;99.90
1355;DHT22;671;48.972;9.276;2023-04-06T04:55:17;0.00;99.90
1355;DHT22;671;48.972;9.276;2023-04-06T04:57:44;0.00;99.90
1355;DHT22;671;48.972;9.276;2023-04-06T05:00:11;0.00;99.90
1355;DHT22;671;48.972;9.276;2023-04-06T05:02:37;0.00;1.00
1355;DHT22;671;48.972;9.276;2023-04-06T05:05:04;0.00;99.90
1355;DHT22;671;48.972;9.276;2023-04-06T05:07:31;0.00;99.90
1355;DHT22;671;48.972;9.276;2023-04-06T05:09:58;0.00;1.00
1355;DHT22;671;48.972;9.276;2023-04-06T05:12:24;0.00;1.00
1355;DHT22;671;48.972;9.276;2023-04-06T05:14:51;0.10;1.00
1355;DHT22;671;48.972;9.276;2023-04-06T05:17:17;0.00;1.00
1355;DHT22;671;48.972;9.276;2023-04-06T05:19:44;0.10;1.00
1355;DHT22;671;48.972;9.276;2023-04-06T05:22:11;0.10;99.90
1355;DHT22;671;48.972;9.276;2023-04-06T05:24:40;0.20;99.90
1355;DHT22;671;48.972;9.276;2023-04-06T05:27:06;0.20;99.90
1355;DHT22;671;48.972;9.276;2023-04-06T05:29:33;0.30;99.90
1355;DHT22;671;48.972;9.276;2023-04-06T05:32:00;0.30;99.90
1355;DHT22;671;48.972;9.276;2023-04-06T05:34:27;0.30;99.90
1355;DHT22;671;48.972;9.276;2023-04-06T05:36:53;0.40;99.90
1355;DHT22;671;48.972;9.276;2023-04-06T05:39:20;0.40;99.90
1355;DHT22;671;48.972;9.276;2023-04-06T05:41:46;0.50;99.90
1355;DHT22;671;48.972;9.276;2023-04-06T05:44:13;0.50;99.90
1355;DHT22;671;48.972;9.276;2023-04-06T05:46:39;0.60;99.90
1355;DHT22;671;48.972;9.276;2023-04-06T05:49:06;0.60;99.90
1355;DHT22;671;48.972;9.276;2023-04-06T05:51:32;0.70;99.90
1355;DHT22;671;48.972;9.276;2023-04-06T05:53:59;0.70;99.90
1355;DHT22;671;48.972;9.276;2023-04-06T05:56:25;0.80;99.90
1355;DHT22;671;48.972;9.276;2023-04-06T05:58:52;0.80;99.90
1355;DHT22;671;48.972;9.276;2023-04-06T06:01:19;0.90;99.90
1355;DHT22;671;48.972;9.276;2023-04-06T06:03:45;1.00;99.90
1355;DHT22;671;48.972;9.276;2023-04-06T06:06:12;1.10;99.90
1355;DHT22;671;48.972;9.276;2023-04-06T06:08:38;1.20;99.90
1355;DHT22;671;48.972;9.276;2023-04-06T06:11:05;1.30;99.90
1355;DHT22;671;48.972;9.276;2023-04-06T06:13:31;1.40;99.90
1355;DHT22;671;48.972;9.276;2023-04-06T06:15:58;1.40;99.90
1355;DHT22;671;48.972;9.276;2023-04-06T06:18:24;1.50;99.90
1355;DHT22;671;48.972;9.276;2023-04-06T06:20:51;1.60;99.90
1355;DHT22;671;48.972;9.276;2023-04-06T06:23:17;1.70;93.10
1355;DHT22;671;48.972;9.276;2023-04-06T06:25:43;1.80;99.90
1355;DHT22;671;48.972;9.276;2023-04-06T06:28:10;1.80;99.90
1355;DHT22;671;48.972;9.276;2023-04-06T06:30:36;2.00;55.50
1355;DHT22;671;48.972;9.276;2023-04-06T06:33:03;2.00;93.10
1355;DHT22;671;48.972;9.276;2023-04-06T06:35:29;2.10;93.30
1355;DHT22;671;48.972;9.276;2023-04-06T06:37:56;2.10;93.00
1355;DHT22;671;48.972;9.276;2023-04-06T06:40:22;2.20;1.00
1355;DHT22;671;48.972;9.276;2023-04-06T06:42:50;2.30;1.00
1355;DHT22;671;48.972;9.276;2023-04-06T06:45:17;2.40;1.00
1355;DHT22;671;48.972;9.276;2023-04-06T06:47:44;2.60;1.00
1355;DHT22;671;48.972;9.276;2023-04-06T06:50:10;2.70;1.00
1355;DHT22;671;48.972;9.276;2023-04-06T06:52:37;2.80;1.00
1355;DHT22;671;48.972;9.276;2023-04-06T06:55:03;2.90;1.00
1355;DHT22;671;48.972;9.276;2023-04-06T06:57:30;3.00;1.00
1355;DHT22;671;48.972;9.276;2023-04-06T06:59:56;3.10;1.00
1355;DHT22;671;48.972;9.276;2023-04-06T07:02:23;3.20;99.90
1355;DHT22;671;48.972;9.276;2023-04-06T07:04:49;3.30;99.90
1355;DHT22;671;48.972;9.276;2023-04-06T07:07:16;3.50;99.90
1355;DHT22;671;48.972;9.276;2023-04-06T07:09:43;3.50;31.10
1355;DHT22;671;48.972;9.276;2023-04-06T07:12:09;3.60;53.50
1355;DHT22;671;48.972;9.276;2023-04-06T07:14:36;3.70;1.00
1355;DHT22;671;48.972;9.276;2023-04-06T07:17:03;3.80;1.00
1355;DHT22;671;48.972;9.276;2023-04-06T07:19:29;4.00;1.00
1355;DHT22;671;48.972;9.276;2023-04-06T07:21:55;4.20;1.00
1355;DHT22;671;48.972;9.276;2023-04-06T07:24:22;4.30;1.00
1355;DHT22;671;48.972;9.276;2023-04-06T07:26:48;4.50;1.00
1355;DHT22;671;48.972;9.276;2023-04-06T07:29:15;4.60;1.00
1355;DHT22;671;48.972;9.276;2023-04-06T07:31:41;4.70;99.90
1355;DHT22;671;48.972;9.276;2023-04-06T07:34:08;4.90;99.90
1355;DHT22;671;48.972;9.276;2023-04-06T07:36:34;5.00;99.90
1355;DHT22;671;48.972;9.276;2023-04-06T07:39:01;5.10;99.90
1355;DHT22;671;48.972;9.276;2023-04-06T07:41:28;5.30;1.00
1355;DHT22;671;48.972;9.276;2023-04-06T07:43:54;5.40;1.00
1355;DHT22;671;48.972;9.276;2023-04-06T07:46:21;5.60;1.00
1355;DHT22;671;48.972;9.276;2023-04-06T07:48:48;5.70;1.00
1355;DHT22;671;48.972;9.276;2023-04-06T07:51:16;5.80;1.00
1355;DHT22;671;48.972;9.276;2023-04-06T07:53:46;5.90;1.00
1355;DHT22;671;48.972;9.276;2023-04-06T07:56:13;6.10;99.90
1355;DHT22;671;48.972;9.276;2023-04-06T07:58:41;6.20;1.00
1355;DHT22;671;48.972;9.276;2023-04-06T08:01:08;6.30;1.00
1355;DHT22;671;48.972;9.276;2023-04-06T08:03:35;6.50;1.00
1355;DHT22;671;48.972;9.276;2023-04-06T08:06:02;6.60;1.00
1355;DHT22;671;48.972;9.276;2023-04-06T08:08:28;6.70;99.90
1355;DHT22;671;48.972;9.276;2023-04-06T08:10:55;6.80;99.90
1355;DHT22;671;48.972;9.276;2023-04-06T08:13:22;6.80;99.90
1355;DHT22;671;48.972;9.276;2023-04-06T08:15:48;7.00;99.90
1355;DHT22;671;48.972;9.276;2023-04-06T08:18:15;7.10;99.90
1355;DHT22;671;48.972;9.276;2023-04-06T08:20:41;7.30;92.00
1355;DHT22;671;48.972;9.276;2023-04-06T08:23:08;7.30;32.80
1355;DHT22;671;48.972;9.276;2023-04-06T08:25:36;7.50;99.90
1355;DHT22;671;48.972;9.276;2023-04-06T08:28:03;7.60;99.90
1355;DHT22;671;48.972;9.276;2023-04-06T08:30:30;7.70;99.90
1355;DHT22;671;48.972;9.276;2023-04-06T08:32:56;7.80;87.40
1355;DHT22;671;48.972;9.276;2023-04-06T08:35:23;7.90;97.20
1355;DHT22;671;48.972;9.276;2023-04-06T08:37:49;8.00;16.90
1355;DHT22;671;48.972;9.276;2023-04-06T08:40:16;8.20;1.00
1355;DHT22;671;48.972;9.276;2023-04-06T08:42:46;8.30;1.00
1355;DHT22;671;48.972;9.276;2023-04-06T08:45:16;8.40;1.00
1355;DHT22;671;48.972;9.276;2023-04-06T08:47:42;8.50;1.00
1355;DHT22;671;48.972;9.276;2023-04-06T08:50:10;8.50;1.00
1355;DHT22;671;48.972;9.276;2023-04-06T08:52:40;8.60;1.00
1355;DHT22;671;48.972;9.276;2023-04-06T08:55:08;8.70;1.00
1355;DHT22;671;48.972;9.276;2023-04-06T08:57:36;8.80;1.00
1355;DHT22;671;48.972;9.276;2023-04-06T09:00:03;8.90;1.00
1355;DHT22;671;48.972;9.276;2023-04-06T09:02:30;9.00;1.00
1355;DHT22;671;48.972;9.276;2023-04-06T09:04:59;9.10;1.00
1355;DHT22;671;48.972;9.276;2023-04-06T09:07:26;9.30;1.00
1355;DHT22;671;48.972;9.276;2023-04-06T09:09:53;9.30;1.00
1355;DHT22;671;48.972;9.276;2023-04-06T09:12:27;9.40;1.00
1355;DHT22;671;48.972;9.276;2023-04-06T09:14:54;9.60;1.00
1355;DHT22;671;48.972;9.276;2023-04-06T09:17:27;9.60;99.90
1355;DHT22;671;48.972;9.276;2023-04-06T09:19:54;9.70;99.90
1355;DHT22;671;48.972;9.276;2023-04-06T09:22:22;9.90;99.90
1355;DHT22;671;48.972;9.276;2023-04-06T09:24:52;10.00;99.90
1355;DHT22;671;48.972;9.276;2023-04-06T09:27:33;10.10;99.90
1355;DHT22;671;48.972;9.276;2023-04-06T09:30:18;10.20;99.90
1355;DHT22;671;48.972;9.276;2023-04-06T09:32:52;10.20;99.90
1355;DHT22;671;48.972;9.276;2023-04-06T09:35:19;10.30;99.90
1355;DHT22;671;48.972;9.276;2023-04-06T09:37:47;10.40;99.90
1355;DHT22;671;48.972;9.276;2023-04-06T09:40:14;10.50;99.90
1355;DHT22;671;48.972;9.276;2023-04-06T09:42:42;10.60;99.90
1355;DHT22;671;48.972;9.276;2023-04-06T09:45:09;10.60;99.90
1355;DHT22;671;48.972;9.276;2023-04-06T09:47:37;10.80;99.90
1355;DHT22;671;48.972;9.276;2023-04-06T09:50:07;10.90;99.90
1355;DHT22;671;48.972;9.276;2023-04-06T09:52:40;11.00;99.90
1355;DHT22;671;48.972;9.276;2023-04-06T09:55:08;11.10;99.90
1355;DHT22;671;48.972;9.276;2023-04-06T09:57:45;11.20;99.90
1355;DHT22;671;48.972;9.276;2023-04-06T10:00:16;11.40;99.90
1355;DHT22;671;48.972;9.276;2023-04-06T10:03:06;11.40;99.90
1355;DHT22;671;48.972;9.276;2023-04-06T10:08:09;11.60;99.90
1355;DHT22;671;48.972;9.276;2023-04-06T10:10:37;11.70;99.90
1355;DHT22;671;48.972;9.276;2023-04-06T10:13:04;11.80;99.90
1355;DHT22;671;48.972;9.276;2023-04-06T10:15:31;11.90;99.90
1355;DHT22;671;48.972;9.276;2023-04-06T10:17:58;11.90;99.90
1355;DHT22;671;48.972;9.276;2023-04-06T10:23:12;12.10;99.90
1355;DHT22;671;48.972;9.276;2023-04-06T10:25:59;12.10;99.90
1355;DHT22;671;48.972;9.276;2023-04-06T10:28:31;12.20;99.90
1355;DHT22;671;48.972;9.276;2023-04-06T10:30:59;12.30;99.90
1355;DHT22;671;48.972;9.276;2023-04-06T10:33:27;12.30;99.90
1355;DHT22;671;48.972;9.276;2023-04-06T10:35:54;12.30;99.90
1355;DHT22;671;48.972;9.276;2023-04-06T10:38:36;12.50;99.90
1355;DHT22;671;48.972;9.276;2023-04-06T10:41:07;12.60;97.90
1355;DHT22;671;48.972;9.276;2023-04-06T10:43:37;12.60;99.60
1355;DHT22;671;48.972;9.276;2023-04-06T10:46:04;12.70;92.80
1355;DHT22;671;48.972;9.276;2023-04-06T10:48:42;12.80;77.50
1355;DHT22;671;48.972;9.276;2023-04-06T10:51:18;12.70;61.30
1355;DHT22;671;48.972;9.276;2023-04-06T10:53:47;12.70;75.00
1355;DHT22;671;48.972;9.276;2023-04-06T10:56:16;12.70;65.80
1355;DHT22;671;48.972;9.276;2023-04-06T10:58:47;12.80;49.80
1355;DHT22;671;48.972;9.276;2023-04-06T11:01:18;12.80;49.50
1355;DHT22;671;48.972;9.276;2023-04-06T11:03:49;12.90;52.50
1355;DHT22;671;48.972;9.276;2023-04-06T11:06:27;12.90;38.00
1355;DHT22;671;48.972;9.276;2023-04-06T11:08:55;12.90;32.30
1355;DHT22;671;48.972;9.276;2023-04-06T11:11:24;12.90;23.30
1355;DHT22;671;48.972;9.276;2023-04-06T11:16:24;13.00;23.30
1355;DHT22;671;48.972;9.276;2023-04-06T11:18:59;13.00;19.10
1355;DHT22;671;48.972;9.276;2023-04-06T11:21:33;13.10;10.10
1355;DHT22;671;48.972;9.276;2023-04-06T11:26:38;13.40;34.50
1355;DHT22;671;48.972;9.276;2023-04-06T11:29:05;13.50;28.70
1355;DHT22;671;48.972;9.276;2023-04-06T11:31:40;13.60;24.60
1355;DHT22;671;48.972;9.276;2023-04-06T11:34:12;13.70;27.30
1355;DHT22;671;48.972;9.276;2023-04-06T11:36:42;13.80;20.30
1355;DHT22;671;48.972;9.276;2023-04-06T11:39:09;13.90;29.10
1355;DHT22;671;48.972;9.276;2023-04-06T11:41:36;13.80;9.70
1355;DHT22;671;48.972;9.276;2023-04-06T11:44:03;13.80;16.90
1355;DHT22;671;48.972;9.276;2023-04-06T11:46:29;13.80;12.50
1355;DHT22;671;48.972;9.276;2023-04-06T11:49:01;13.80;5.10
1355;DHT22;671;48.972;9.276;2023-04-06T11:51:27;13.80;10.00
1355;DHT22;671;48.972;9.276;2023-04-06T11:53:54;13.90;10.60
1355;DHT22;671;48.972;9.276;2023-04-06T11:56:25;13.90;3.00
1355;DHT22;671;48.972;9.276;2023-04-06T11:58:54;13.90;1.00
1355;DHT22;671;48.972;9.276;2023-04-06T12:01:20;13.80;1.00
1355;DHT22;671;48.972;9.276;2023-04-06T12:03:47;13.70;1.00
1355;DHT22;671;48.972;9.276;2023-04-06T12:06:14;13.70;1.00
1355;DHT22;671;48.972;9.276;2023-04-06T12:08:41;13.90;1.00
1355;DHT22;671;48.972;9.276;2023-04-06T12:11:07;14.00;1.00
1355;DHT22;671;48.972;9.276;2023-04-06T12:13:34;14.10;1.00
1355;DHT22;671;48.972;9.276;2023-04-06T12:16:01;14.10;1.00
1355;DHT22;671;48.972;9.276;2023-04-06T12:18:27;14.20;1.00
1355;DHT22;671;48.972;9.276;2023-04-06T12:20:54;14.20;1.00
1355;DHT22;671;48.972;9.276;2023-04-06T12:23:20;14.30;1.00
1355;DHT22;671;48.972;9.276;2023-04-06T12:25:47;14.20;1.00
1355;DHT22;671;48.972;9.276;2023-04-06T12:28:13;14.30;1.00
1355;DHT22;671;48.972;9.276;2023-04-06T12:30:40;14.30;1.00
1355;DHT22;671;48.972;9.276;2023-04-06T12:33:09;14.40;1.00
1355;DHT22;671;48.972;9.276;2023-04-06T12:35:36;14.40;1.00
1355;DHT22;671;48.972;9.276;2023-04-06T12:38:03;14.40;1.00
1355;DHT22;671;48.972;9.276;2023-04-06T12:40:30;14.50;1.00
1355;DHT22;671;48.972;9.276;2023-04-06T12:42:56;14.50;1.00
1355;DHT22;671;48.972;9.276;2023-04-06T12:45:23;14.50;1.00
1355;DHT22;671;48.972;9.276;2023-04-06T12:47:50;14.40;1.00
1355;DHT22;671;48.972;9.276;2023-04-06T12:50:17;14.40;1.00
1355;DHT22;671;48.972;9.276;2023-04-06T12:52:44;14.50;1.00
1355;DHT22;671;48.972;9.276;2023-04-06T12:55:10;14.60;1.00
1355;DHT22;671;48.972;9.276;2023-04-06T12:57:37;14.80;1.00
1355;DHT22;671;48.972;9.276;2023-04-06T13:00:04;14.90;1.00
1355;DHT22;671;48.972;9.276;2023-04-06T13:02:31;15.00;1.00
1355;DHT22;671;48.972;9.276;2023-04-06T13:04:58;14.90;1.00
1355;DHT22;671;48.972;9.276;2023-04-06T13:07:24;14.90;1.00
1355;DHT22;671;48.972;9.276;2023-04-06T13:09:51;15.00;1.00
1355;DHT22;671;48.972;9.276;2023-04-06T13:12:18;15.20;1.00
1355;DHT22;671;48.972;9.276;2023-04-06T13:14:44;15.30;1.00
1355;DHT22;671;48.972;9.276;2023-04-06T13:17:17;15.30;1.00
1355;DHT22;671;48.972;9.276;2023-04-06T13:19:43;15.30;1.00
1355;DHT22;671;48.972;9.276;2023-04-06T13:22:10;15.30;1.00
1355;DHT22;671;48.972;9.276;2023-04-06T13:24:37;15.30;1.00
1355;DHT22;671;48.972;9.276;2023-04-06T13:27:03;15.20;1.00
1355;DHT22;671;48.972;9.276;2023-04-06T13:29:30;15.10;1.00
1355;DHT22;671;48.972;9.276;2023-04-06T13:31:56;15.10;1.00
1355;DHT22;671;48.972;9.276;2023-04-06T13:34:23;15.00;1.00
1355;DHT22;671;48.972;9.276;2023-04-06T13:36:49;15.10;1.00
1355;DHT22;671;48.972;9.276;2023-04-06T13:39:16;15.20;1.00
1355;DHT22;671;48.972;9.276;2023-04-06T13:41:43;15.40;1.00
1355;DHT22;671;48.972;9.276;2023-04-06T13:44:09;15.50;1.00
1355;DHT22;671;48.972;9.276;2023-04-06T13:46:36;15.50;1.00
1355;DHT22;671;48.972;9.276;2023-04-06T13:49:03;15.70;1.00
1355;DHT22;671;48.972;9.276;2023-04-06T13:51:29;15.80;1.00
1355;DHT22;671;48.972;9.276;2023-04-06T13:53:56;15.80;1.00
1355;DHT22;671;48.972;9.276;2023-04-06T13:56:23;16.00;1.00
1355;DHT22;671;48.972;9.276;2023-04-06T13:58:49;16.10;1.00
1355;DHT22;671;48.972;9.276;2023-04-06T14:01:19;16.10;1.00
1355;DHT22;671;48.972;9.276;2023-04-06T14:03:46;16.10;1.00
1355;DHT22;671;48.972;9.276;2023-04-06T14:06:14;16.10;1.00
1355;DHT22;671;48.972;9.276;2023-04-06T14:08:40;16.20;1.00
1355;DHT22;671;48.972;9.276;2023-04-06T14:11:11;16.10;1.00
1355;DHT22;671;48.972;9.276;2023-04-06T14:13:38;16.10;1.00
1355;DHT22;671;48.972;9.276;2023-04-06T14:16:06;16.10;1.00
1355;DHT22;671;48.972;9.276;2023-04-06T14:18:33;16.30;1.00
1355;DHT22;671;48.972;9.276;2023-04-06T14:21:00;16.50;1.00
1355;DHT22;671;48.972;9.276;2023-04-06T14:23:28;16.70;1.00
1355;DHT22;671;48.972;9.276;2023-04-06T14:26:05;16.80;1.00
1355;DHT22;671;48.972;9.276;2023-04-06T14:28:32;17.00;1.00
1355;DHT22;671;48.972;9.276;2023-04-06T14:31:00;17.00;1.00
1355;DHT22;671;48.972;9.276;2023-04-06T14:33:27;16.90;1.00
1355;DHT22;671;48.972;9.276;2023-04-06T14:35:53;17.00;1.00
1355;DHT22;671;48.972;9.276;2023-04-06T14:38:20;17.00;1.00
1355;DHT22;671;48.972;9.276;2023-04-06T14:40:47;17.00;1.00
1355;DHT22;671;48.972;9.276;2023-04-06T14:43:13;16.90;1.00
1355;DHT22;671;48.972;9.276;2023-04-06T14:45:40;16.90;1.00
1355;DHT22;671;48.972;9.276;2023-04-06T14:48:06;16.70;1.00
1355;DHT22;671;48.972;9.276;2023-04-06T14:50:33;16.80;1.00
1355;DHT22;671;48.972;9.276;2023-04-06T14:53:00;16.80;1.00
1355;DHT22;671;48.972;9.276;2023-04-06T14:55:27;16.80;1.00
1355;DHT22;671;48.972;9.276;2023-04-06T14:57:53;16.70;1.00
1355;DHT22;671;48.972;9.276;2023-04-06T15:00:20;16.70;1.00
1355;DHT22;671;48.972;9.276;2023-04-06T15:02:46;16.70;1.00
1355;DHT22;671;48.972;9.276;2023-04-06T15:05:13;16.70;1.00
1355;DHT22;671;48.972;9.276;2023-04-06T15:07:40;16.70;1.00
1355;DHT22;671;48.972;9.276;2023-04-06T15:10:07;16.80;1.00
1355;DHT22;671;48.972;9.276;2023-04-06T15:12:35;16.80;1.00
1355;DHT22;671;48.972;9.276;2023-04-06T15:15:02;16.70;1.00
1355;DHT22;671;48.972;9.276;2023-04-06T15:17:28;16.60;1.00
1355;DHT22;671;48.972;9.276;2023-04-06T15:19:55;16.60;1.00
1355;DHT22;671;48.972;9.276;2023-04-06T15:22:22;16.70;1.00
1355;DHT22;671;48.972;9.276;2023-04-06T15:24:48;16.80;1.00
1355;DHT22;671;48.972;9.276;2023-04-06T15:27:15;16.80;1.00
1355;DHT22;671;48.972;9.276;2023-04-06T15:29:41;16.90;1.00
1355;DHT22;671;48.972;9.276;2023-04-06T15:32:08;16.90;1.00
1355;DHT22;671;48.972;9.276;2023-04-06T15:34:35;17.00;1.00
1355;DHT22;671;48.972;9.276;2023-04-06T15:37:02;16.80;1.00
1355;DHT22;671;48.972;9.276;2023-04-06T15:39:30;16.70;1.00
1355;DHT22;671;48.972;9.276;2023-04-06T15:41:56;16.70;1.00
1355;DHT22;671;48.972;9.276;2023-04-06T15:44:23;16.60;1.00
1355;DHT22;671;48.972;9.276;2023-04-06T15:46:50;16.60;1.00
1355;DHT22;671;48.972;9.276;2023-04-06T15:49:19;16.60;1.00
1355;DHT22;671;48.972;9.276;2023-04-06T15:51:50;16.50;1.00
1355;DHT22;671;48.972;9.276;2023-04-06T15:54:17;16.40;1.00
1355;DHT22;671;48.972;9.276;2023-04-06T15:56:45;16.40;1.00
1355;DHT22;671;48.972;9.276;2023-04-06T15:59:12;16.20;1.00
1355;DHT22;671;48.972;9.276;2023-04-06T16:01:38;16.10;1.00
1355;DHT22;671;48.972;9.276;2023-04-06T16:04:08;16.00;1.00
1355;DHT22;671;48.972;9.276;2023-04-06T16:06:36;15.90;1.00
1355;DHT22;671;48.972;9.276;2023-04-06T16:09:03;15.80;1.00
1355;DHT22;671;48.972;9.276;2023-04-06T16:11:29;15.70;1.00
1355;DHT22;671;48.972;9.276;2023-04-06T16:13:57;15.60;1.00
1355;DHT22;671;48.972;9.276;2023-04-06T16:16:24;15.60;1.00
1355;DHT22;671;48.972;9.276;2023-04-06T16:18:50;15.50;1.00
1355;DHT22;671;48.972;9.276;2023-04-06T16:21:17;15.30;1.00
1355;DHT22;671;48.972;9.276;2023-04-06T16:23:45;15.30;1.00
1355;DHT22;671;48.972;9.276;2023-04-06T16:26:13;15.20;1.00
1355;DHT22;671;48.972;9.276;2023-04-06T16:28:40;15.20;1.00
1355;DHT22;671;48.972;9.276;2023-04-06T16:31:16;15.20;1.00
1355;DHT22;671;48.972;9.276;2023-04-06T16:33:43;15.10;1.00
1355;DHT22;671;48.972;9.276;2023-04-06T16:36:09;15.00;1.00
1355;DHT22;671;48.972;9.276;2023-04-06T16:38:36;15.00;1.00
1355;DHT22;671;48.972;9.276;2023-04-06T16:41:02;15.00;1.00
1355;DHT22;671;48.972;9.276;2023-04-06T16:43:28;15.00;1.00
1355;DHT22;671;48.972;9.276;2023-04-06T16:45:55;15.00;1.00
1355;DHT22;671;48.972;9.276;2023-04-06T16:48:21;14.90;1.00